sensor_id;sensor_type;location;lat;lon;timestamp;temperature;humidity
52943;DHT22;38809;53.300;6.614;2023-08-07T00:00:25;16.00;99.90
52943;DHT22;38809;53.300;6.614;2023-08-07T00:02:51;16.00;99.90
52943;DHT22;38809;53.300;6.614;2023-08-07T00:05:17;16.00;99.90
52943;DHT22;38809;53.300;6.614;2023-08-07T00:07:43;16.00;99.90
52943;DHT22;38809;53.300;6.614;2023-08-07T00:10:09;16.10;99.90
52943;DHT22;38809;53.300;6.614;2023-08-07T00:12:35;16.10;99.90
52943;DHT22;38809;53.300;6.614;2023-08-07T00:15:02;16.10;99.90
52943;DHT22;38809;53.300;6.614;2023-08-07T00:17:27;16.10;99.90
52943;DHT22;38809;53.300;6.614;2023-08-07T00:19:53;16.20;99.90
52943;DHT22;38809;53.300;6.614;2023-08-07T00:22:19;16.10;99.90
52943;DHT22;38809;53.300;6.614;2023-08-07T00:24:44;16.10;99.90
52943;DHT22;38809;53.300;6.614;2023-08-07T00:27:10;16.10;99.90
52943;DHT22;38809;53.300;6.614;2023-08-07T00:29:36;16.10;99.90
52943;DHT22;38809;53.300;6.614;2023-08-07T00:32:03;16.00;99.90
52943;DHT22;38809;53.300;6.614;2023-08-07T00:34:29;16.10;99.90
52943;DHT22;38809;53.300;6.614;2023-08-07T00:36:55;16.00;99.90
52943;DHT22;38809;53.300;6.614;2023-08-07T00:39:20;16.00;99.90
52943;DHT22;38809;53.300;6.614;2023-08-07T00:41:46;16.00;99.90
52943;DHT22;38809;53.300;6.614;2023-08-07T00:44:12;16.10;99.90
52943;DHT22;38809;53.300;6.614;2023-08-07T00:46:38;16.00;99.90
52943;DHT22;38809;53.300;6.614;2023-08-07T00:49:08;16.00;99.90
52943;DHT22;38809;53.300;6.614;2023-08-07T00:51:35;16.00;99.90
52943;DHT22;38809;53.300;6.614;2023-08-07T00:54:03;16.00;99.90
52943;DHT22;38809;53.300;6.614;2023-08-07T00:56:30;16.00;99.90
52943;DHT22;38809;53.300;6.614;2023-08-07T00:59:00;16.00;99.90
52943;DHT22;38809;53.300;6.614;2023-08-07T01:01:26;15.90;99.90
52943;DHT22;38809;53.300;6.614;2023-08-07T01:03:53;15.90;99.90
52943;DHT22;38809;53.300;6.614;2023-08-07T01:06:18;15.90;99.90
52943;DHT22;38809;53.300;6.614;2023-08-07T01:08:45;15.80;99.90
52943;DHT22;38809;53.300;6.614;2023-08-07T01:11:14;15.70;99.90
52943;DHT22;38809;53.300;6.614;2023-08-07T01:16:26;15.70;99.90
52943;DHT22;38809;53.300;6.614;2023-08-07T01:18:53;15.70;99.90
52943;DHT22;38809;53.300;6.614;2023-08-07T01:21:21;15.70;99.90
52943;DHT22;38809;53.300;6.614;2023-08-07T01:23:47;15.70;99.90
52943;DHT22;38809;53.300;6.614;2023-08-07T01:26:14;15.70;99.90
52943;DHT22;38809;53.300;6.614;2023-08-07T01:29:29;15.60;99.90
52943;DHT22;38809;53.300;6.614;2023-08-07T01:31:36;15.60;99.90
52943;DHT22;38809;53.300;6.614;2023-08-07T01:34:05;15.60;99.90
52943;DHT22;38809;53.300;6.614;2023-08-07T01:36:34;15.60;99.90
52943;DHT22;38809;53.300;6.614;2023-08-07T01:39:00;15.50;99.90
52943;DHT22;38809;53.300;6.614;2023-08-07T01:41:27;15.60;99.90
52943;DHT22;38809;53.300;6.614;2023-08-07T01:43:54;15.50;99.90
52943;DHT22;38809;53.300;6.614;2023-08-07T01:46:20;15.50;99.90
52943;DHT22;38809;53.300;6.614;2023-08-07T01:48:46;15.50;99.90
52943;DHT22;38809;53.300;6.614;2023-08-07T01:51:12;15.50;99.90
52943;DHT22;38809;53.300;6.614;2023-08-07T01:53:38;15.50;99.90
52943;DHT22;38809;53.300;6.614;2023-08-07T01:56:03;15.50;99.90
52943;DHT22;38809;53.300;6.614;2023-08-07T01:58:29;15.50;99.90
52943;DHT22;38809;53.300;6.614;2023-08-07T02:00:55;15.50;99.90
52943;DHT22;38809;53.300;6.614;2023-08-07T02:03:20;15.50;99.90
52943;DHT22;38809;53.300;6.614;2023-08-07T02:05:47;15.50;99.90
52943;DHT22;38809;53.300;6.614;2023-08-07T02:08:12;15.50;99.90
52943;DHT22;38809;53.300;6.614;2023-08-07T02:10:38;15.40;99.90
52943;DHT22;38809;53.300;6.614;2023-08-07T02:13:04;15.40;99.90
52943;DHT22;38809;53.300;6.614;2023-08-07T02:15:29;15.40;99.90
52943;DHT22;38809;53.300;6.614;2023-08-07T02:17:55;15.60;99.90
52943;DHT22;38809;53.300;6.614;2023-08-07T02:20:21;15.30;99.90
52943;DHT22;38809;53.300;6.614;2023-08-07T02:22:46;15.20;99.90
52943;DHT22;38809;53.300;6.614;2023-08-07T02:25:12;15.20;99.90
52943;DHT22;38809;53.300;6.614;2023-08-07T02:27:38;15.10;99.90
52943;DHT22;38809;53.300;6.614;2023-08-07T02:30:04;15.10;99.90
52943;DHT22;38809;53.300;6.614;2023-08-07T02:32:31;15.00;99.90
52943;DHT22;38809;53.300;6.614;2023-08-07T02:34:56;15.00;99.90
52943;DHT22;38809;53.300;6.614;2023-08-07T02:37:22;15.00;99.90
52943;DHT22;38809;53.300;6.614;2023-08-07T02:39:48;15.10;99.90
52943;DHT22;38809;53.300;6.614;2023-08-07T02:42:14;15.00;99.90
52943;DHT22;38809;53.300;6.614;2023-08-07T02:44:39;15.00;99.90
52943;DHT22;38809;53.300;6.614;2023-08-07T02:47:05;15.00;99.90
52943;DHT22;38809;53.300;6.614;2023-08-07T02:49:31;15.10;99.90
52943;DHT22;38809;53.300;6.614;2023-08-07T02:51:57;15.00;99.90
52943;DHT22;38809;53.300;6.614;2023-08-07T02:54:22;15.00;99.90
52943;DHT22;38809;53.300;6.614;2023-08-07T02:56:48;15.10;99.90
52943;DHT22;38809;53.300;6.614;2023-08-07T02:59:15;15.10;99.90
52943;DHT22;38809;53.300;6.614;2023-08-07T03:01:41;15.10;99.90
52943;DHT22;38809;53.300;6.614;2023-08-07T03:04:07;15.10;99.90
52943;DHT22;38809;53.300;6.614;2023-08-07T03:06:33;15.10;99.90
52943;DHT22;38809;53.300;6.614;2023-08-07T03:08:59;15.10;99.90
52943;DHT22;38809;53.300;6.614;2023-08-07T03:11:24;15.00;99.90
52943;DHT22;38809;53.300;6.614;2023-08-07T03:13:50;15.10;99.90
52943;DHT22;38809;53.300;6.614;2023-08-07T03:16:16;15.00;99.90
52943;DHT22;38809;53.300;6.614;2023-08-07T03:18:41;15.10;99.90
52943;DHT22;38809;53.300;6.614;2023-08-07T03:21:07;15.20;99.90
52943;DHT22;38809;53.300;6.614;2023-08-07T03:23:33;15.30;99.90
52943;DHT22;38809;53.300;6.614;2023-08-07T03:26:09;15.30;99.90
52943;DHT22;38809;53.300;6.614;2023-08-07T03:28:36;15.40;99.90
52943;DHT22;38809;53.300;6.614;2023-08-07T03:31:02;15.40;99.90
52943;DHT22;38809;53.300;6.614;2023-08-07T03:33:28;15.40;99.90
52943;DHT22;38809;53.300;6.614;2023-08-07T03:35:53;15.30;99.90
52943;DHT22;38809;53.300;6.614;2023-08-07T03:38:19;15.40;99.90
52943;DHT22;38809;53.300;6.614;2023-08-07T03:40:45;15.40;99.90
52943;DHT22;38809;53.300;6.614;2023-08-07T03:43:11;15.30;99.90
52943;DHT22;38809;53.300;6.614;2023-08-07T03:45:37;15.30;99.90
52943;DHT22;38809;53.300;6.614;2023-08-07T03:48:02;15.40;99.90
52943;DHT22;38809;53.300;6.614;2023-08-07T03:50:28;15.40;99.90
52943;DHT22;38809;53.300;6.614;2023-08-07T03:52:56;15.20;99.90
52943;DHT22;38809;53.300;6.614;2023-08-07T03:55:21;15.10;99.90
52943;DHT22;38809;53.300;6.614;2023-08-07T03:57:47;15.00;99.90
52943;DHT22;38809;53.300;6.614;2023-08-07T04:00:13;15.00;99.90
52943;DHT22;38809;53.300;6.614;2023-08-07T04:02:39;14.90;99.90
52943;DHT22;38809;53.300;6.614;2023-08-07T04:05:06;15.00;99.90
52943;DHT22;38809;53.300;6.614;2023-08-07T04:07:31;14.90;99.90
52943;DHT22;38809;53.300;6.614;2023-08-07T04:09:57;15.00;99.90
52943;DHT22;38809;53.300;6.614;2023-08-07T04:12:23;15.00;99.90
52943;DHT22;38809;53.300;6.614;2023-08-07T04:14:48;15.00;99.90
52943;DHT22;38809;53.300;6.614;2023-08-07T04:17:14;15.00;99.90
52943;DHT22;38809;53.300;6.614;2023-08-07T04:19:40;15.00;99.90
52943;DHT22;38809;53.300;6.614;2023-08-07T04:22:05;15.00;99.90
52943;DHT22;38809;53.300;6.614;2023-08-07T04:24:31;15.00;99.90
52943;DHT22;38809;53.300;6.614;2023-08-07T04:26:57;15.00;99.90
52943;DHT22;38809;53.300;6.614;2023-08-07T04:29:24;15.00;99.90
52943;DHT22;38809;53.300;6.614;2023-08-07T04:31:49;15.20;99.90
52943;DHT22;38809;53.300;6.614;2023-08-07T04:34:15;15.20;99.90
52943;DHT22;38809;53.300;6.614;2023-08-07T04:36:41;15.10;99.90
52943;DHT22;38809;53.300;6.614;2023-08-07T04:39:07;15.10;99.90
52943;DHT22;38809;53.300;6.614;2023-08-07T04:41:32;15.10;99.90
52943;DHT22;38809;53.300;6.614;2023-08-07T04:43:58;15.10;99.90
52943;DHT22;38809;53.300;6.614;2023-08-07T04:46:24;15.00;99.90
52943;DHT22;38809;53.300;6.614;2023-08-07T04:48:49;15.00;99.90
52943;DHT22;38809;53.300;6.614;2023-08-07T04:51:15;15.00;99.90
52943;DHT22;38809;53.300;6.614;2023-08-07T04:53:41;15.00;99.90
52943;DHT22;38809;53.300;6.614;2023-08-07T04:56:07;15.10;99.90
52943;DHT22;38809;53.300;6.614;2023-08-07T04:58:32;15.10;99.90
52943;DHT22;38809;53.300;6.614;2023-08-07T05:00:59;15.10;99.90
52943;DHT22;38809;53.300;6.614;2023-08-07T05:03:25;15.10;99.90
52943;DHT22;38809;53.300;6.614;2023-08-07T05:05:58;15.10;99.90
52943;DHT22;38809;53.300;6.614;2023-08-07T05:08:24;15.20;99.90
52943;DHT22;38809;53.300;6.614;2023-08-07T05:10:50;15.20;99.90
52943;DHT22;38809;53.300;6.614;2023-08-07T05:13:15;15.20;99.90
52943;DHT22;38809;53.300;6.614;2023-08-07T05:15:41;15.20;99.90
52943;DHT22;38809;53.300;6.614;2023-08-07T05:18:07;15.30;99.90
52943;DHT22;38809;53.300;6.614;2023-08-07T05:20:33;15.30;99.90
52943;DHT22;38809;53.300;6.614;2023-08-07T05:22:59;15.20;99.90
52943;DHT22;38809;53.300;6.614;2023-08-07T05:25:25;15.30;99.90
52943;DHT22;38809;53.300;6.614;2023-08-07T05:27:51;15.30;99.90
52943;DHT22;38809;53.300;6.614;2023-08-07T05:30:16;15.20;99.90
52943;DHT22;38809;53.300;6.614;2023-08-07T05:32:42;15.20;99.90
52943;DHT22;38809;53.300;6.614;2023-08-07T05:35:08;15.10;99.90
52943;DHT22;38809;53.300;6.614;2023-08-07T05:37:34;15.20;99.90
52943;DHT22;38809;53.300;6.614;2023-08-07T05:40:00;15.30;99.90
52943;DHT22;38809;53.300;6.614;2023-08-07T05:42:26;15.40;99.90
52943;DHT22;38809;53.300;6.614;2023-08-07T05:44:52;15.50;99.90
52943;DHT22;38809;53.300;6.614;2023-08-07T05:47:17;15.60;99.90
52943;DHT22;38809;53.300;6.614;2023-08-07T05:49:43;15.60;99.90
52943;DHT22;38809;53.300;6.614;2023-08-07T05:52:09;15.50;99.90
52943;DHT22;38809;53.300;6.614;2023-08-07T05:54:35;15.40;99.90
52943;DHT22;38809;53.300;6.614;2023-08-07T05:57:00;15.20;99.90
52943;DHT22;38809;53.300;6.614;2023-08-07T05:59:26;15.10;99.90
52943;DHT22;38809;53.300;6.614;2023-08-07T06:01:53;15.00;99.90
52943;DHT22;38809;53.300;6.614;2023-08-07T06:04:20;14.90;99.90
52943;DHT22;38809;53.300;6.614;2023-08-07T06:06:47;14.90;99.90
52943;DHT22;38809;53.300;6.614;2023-08-07T06:09:13;15.00;99.90
52943;DHT22;38809;53.300;6.614;2023-08-07T06:11:41;15.00;99.90
52943;DHT22;38809;53.300;6.614;2023-08-07T06:14:06;15.20;99.90
52943;DHT22;38809;53.300;6.614;2023-08-07T06:16:32;15.30;99.90
52943;DHT22;38809;53.300;6.614;2023-08-07T06:18:58;15.40;99.90
52943;DHT22;38809;53.300;6.614;2023-08-07T06:21:24;15.50;99.90
52943;DHT22;38809;53.300;6.614;2023-08-07T06:23:49;15.60;99.90
52943;DHT22;38809;53.300;6.614;2023-08-07T06:26:15;15.60;99.90
52943;DHT22;38809;53.300;6.614;2023-08-07T06:28:42;15.60;99.90
52943;DHT22;38809;53.300;6.614;2023-08-07T06:31:09;15.70;99.90
52943;DHT22;38809;53.300;6.614;2023-08-07T06:33:36;15.80;99.90
52943;DHT22;38809;53.300;6.614;2023-08-07T06:36:03;15.90;99.90
52943;DHT22;38809;53.300;6.614;2023-08-07T06:38:29;15.70;99.90
52943;DHT22;38809;53.300;6.614;2023-08-07T06:40:55;15.40;99.90
52943;DHT22;38809;53.300;6.614;2023-08-07T06:43:21;15.30;99.90
52943;DHT22;38809;53.300;6.614;2023-08-07T06:45:50;15.30;99.90
52943;DHT22;38809;53.300;6.614;2023-08-07T06:48:16;15.20;99.90
52943;DHT22;38809;53.300;6.614;2023-08-07T06:50:42;15.20;99.90
52943;DHT22;38809;53.300;6.614;2023-08-07T06:53:07;15.20;99.90
52943;DHT22;38809;53.300;6.614;2023-08-07T06:55:33;15.30;99.90
52943;DHT22;38809;53.300;6.614;2023-08-07T06:57:59;15.20;99.90
52943;DHT22;38809;53.300;6.614;2023-08-07T07:00:25;15.20;99.90
52943;DHT22;38809;53.300;6.614;2023-08-07T07:02:51;15.70;99.90
52943;DHT22;38809;53.300;6.614;2023-08-07T07:05:17;15.20;99.90
52943;DHT22;38809;53.300;6.614;2023-08-07T07:07:42;15.30;99.90
52943;DHT22;38809;53.300;6.614;2023-08-07T07:10:08;15.30;99.90
52943;DHT22;38809;53.300;6.614;2023-08-07T07:12:34;15.40;99.90
52943;DHT22;38809;53.300;6.614;2023-08-07T07:14:59;15.40;99.90
52943;DHT22;38809;53.300;6.614;2023-08-07T07:17:25;15.50;99.90
52943;DHT22;38809;53.300;6.614;2023-08-07T07:19:51;15.60;99.90
52943;DHT22;38809;53.300;6.614;2023-08-07T07:22:16;15.60;99.90
52943;DHT22;38809;53.300;6.614;2023-08-07T07:24:42;15.70;99.90
52943;DHT22;38809;53.300;6.614;2023-08-07T07:27:08;15.90;99.90
52943;DHT22;38809;53.300;6.614;2023-08-07T07:29:33;16.20;99.90
52943;DHT22;38809;53.300;6.614;2023-08-07T07:31:59;16.30;99.90
52943;DHT22;38809;53.300;6.614;2023-08-07T07:34:25;16.20;99.90
52943;DHT22;38809;53.300;6.614;2023-08-07T07:36:51;16.20;99.90
52943;DHT22;38809;53.300;6.614;2023-08-07T07:39:17;16.30;99.90
52943;DHT22;38809;53.300;6.614;2023-08-07T07:41:43;16.30;99.90
52943;DHT22;38809;53.300;6.614;2023-08-07T07:44:08;16.30;99.90
52943;DHT22;38809;53.300;6.614;2023-08-07T07:46:34;16.20;99.90
52943;DHT22;38809;53.300;6.614;2023-08-07T07:49:00;16.40;99.90
52943;DHT22;38809;53.300;6.614;2023-08-07T07:51:26;16.40;99.90
52943;DHT22;38809;53.300;6.614;2023-08-07T07:53:52;16.40;99.90
52943;DHT22;38809;53.300;6.614;2023-08-07T07:56:18;16.30;99.90
52943;DHT22;38809;53.300;6.614;2023-08-07T07:58:44;16.20;99.90
52943;DHT22;38809;53.300;6.614;2023-08-07T08:01:10;16.00;99.90
52943;DHT22;38809;53.300;6.614;2023-08-07T08:03:36;15.90;99.90
52943;DHT22;38809;53.300;6.614;2023-08-07T08:06:01;15.80;99.90
52943;DHT22;38809;53.300;6.614;2023-08-07T08:08:27;15.80;99.90
52943;DHT22;38809;53.300;6.614;2023-08-07T08:10:53;15.80;99.90
52943;DHT22;38809;53.300;6.614;2023-08-07T08:13:19;15.80;99.90
52943;DHT22;38809;53.300;6.614;2023-08-07T08:15:45;15.90;99.90
52943;DHT22;38809;53.300;6.614;2023-08-07T08:18:11;16.10;99.90
52943;DHT22;38809;53.300;6.614;2023-08-07T08:20:37;16.60;99.90
52943;DHT22;38809;53.300;6.614;2023-08-07T08:23:04;16.70;99.90
52943;DHT22;38809;53.300;6.614;2023-08-07T08:25:30;16.70;99.90
52943;DHT22;38809;53.300;6.614;2023-08-07T08:27:56;17.00;99.90
52943;DHT22;38809;53.300;6.614;2023-08-07T08:30:22;17.20;99.90
52943;DHT22;38809;53.300;6.614;2023-08-07T08:32:48;17.60;99.90
52943;DHT22;38809;53.300;6.614;2023-08-07T08:35:14;17.70;99.90
52943;DHT22;38809;53.300;6.614;2023-08-07T08:37:40;17.80;99.90
52943;DHT22;38809;53.300;6.614;2023-08-07T08:40:07;17.70;99.90
52943;DHT22;38809;53.300;6.614;2023-08-07T08:42:34;17.80;99.90
52943;DHT22;38809;53.300;6.614;2023-08-07T08:45:01;17.80;99.90
52943;DHT22;38809;53.300;6.614;2023-08-07T08:47:29;18.30;99.90
52943;DHT22;38809;53.300;6.614;2023-08-07T08:50:04;18.20;99.90
52943;DHT22;38809;53.300;6.614;2023-08-07T08:52:32;18.20;99.90
52943;DHT22;38809;53.300;6.614;2023-08-07T08:55:01;18.20;99.90
52943;DHT22;38809;53.300;6.614;2023-08-07T08:57:28;18.30;99.90
52943;DHT22;38809;53.300;6.614;2023-08-07T08:59:58;18.10;99.90
52943;DHT22;38809;53.300;6.614;2023-08-07T09:02:25;17.90;99.90
52943;DHT22;38809;53.300;6.614;2023-08-07T09:04:50;18.00;99.90
52943;DHT22;38809;53.300;6.614;2023-08-07T09:07:17;17.50;99.90
52943;DHT22;38809;53.300;6.614;2023-08-07T09:09:46;17.30;99.90
52943;DHT22;38809;53.300;6.614;2023-08-07T09:12:32;17.90;99.90
52943;DHT22;38809;53.300;6.614;2023-08-07T09:14:58;17.60;99.90
52943;DHT22;38809;53.300;6.614;2023-08-07T09:17:31;17.40;99.90
52943;DHT22;38809;53.300;6.614;2023-08-07T09:19:57;17.10;99.90
52943;DHT22;38809;53.300;6.614;2023-08-07T09:22:23;17.20;99.90
52943;DHT22;38809;53.300;6.614;2023-08-07T09:24:49;17.10;99.90
52943;DHT22;38809;53.300;6.614;2023-08-07T09:27:15;17.50;99.90
52943;DHT22;38809;53.300;6.614;2023-08-07T09:29:41;17.70;99.90
52943;DHT22;38809;53.300;6.614;2023-08-07T09:32:09;17.30;99.90
52943;DHT22;38809;53.300;6.614;2023-08-07T09:34:35;17.50;99.90
52943;DHT22;38809;53.300;6.614;2023-08-07T09:37:01;18.10;99.90
52943;DHT22;38809;53.300;6.614;2023-08-07T09:39:30;18.00;99.90
52943;DHT22;38809;53.300;6.614;2023-08-07T09:41:55;18.60;99.90
52943;DHT22;38809;53.300;6.614;2023-08-07T09:44:21;18.00;99.90
52943;DHT22;38809;53.300;6.614;2023-08-07T09:46:47;18.30;99.90
52943;DHT22;38809;53.300;6.614;2023-08-07T09:49:13;18.60;99.90
52943;DHT22;38809;53.300;6.614;2023-08-07T09:51:46;18.30;99.90
52943;DHT22;38809;53.300;6.614;2023-08-07T09:54:12;18.20;99.90
52943;DHT22;38809;53.300;6.614;2023-08-07T09:56:41;17.90;99.90
52943;DHT22;38809;53.300;6.614;2023-08-07T09:59:08;17.60;99.90
52943;DHT22;38809;53.300;6.614;2023-08-07T10:01:36;17.20;99.90
52943;DHT22;38809;53.300;6.614;2023-08-07T10:04:04;17.20;99.90
52943;DHT22;38809;53.300;6.614;2023-08-07T10:06:30;17.10;99.90
52943;DHT22;38809;53.300;6.614;2023-08-07T10:08:56;17.30;99.90
52943;DHT22;38809;53.300;6.614;2023-08-07T10:11:23;17.40;99.90
52943;DHT22;38809;53.300;6.614;2023-08-07T10:13:50;17.30;99.90
52943;DHT22;38809;53.300;6.614;2023-08-07T10:16:15;17.50;99.90
52943;DHT22;38809;53.300;6.614;2023-08-07T10:18:41;17.30;99.90
52943;DHT22;38809;53.300;6.614;2023-08-07T10:21:07;17.30;99.90
52943;DHT22;38809;53.300;6.614;2023-08-07T10:23:35;17.30;99.90
52943;DHT22;38809;53.300;6.614;2023-08-07T10:26:04;17.30;99.90
52943;DHT22;38809;53.300;6.614;2023-08-07T10:28:33;17.20;99.90
52943;DHT22;38809;53.300;6.614;2023-08-07T10:30:59;17.20;99.90
52943;DHT22;38809;53.300;6.614;2023-08-07T10:33:25;17.00;99.90
52943;DHT22;38809;53.300;6.614;2023-08-07T10:35:52;17.00;99.90
52943;DHT22;38809;53.300;6.614;2023-08-07T10:38:23;16.90;99.90
52943;DHT22;38809;53.300;6.614;2023-08-07T10:41:02;17.00;99.90
52943;DHT22;38809;53.300;6.614;2023-08-07T10:43:32;17.10;99.90
52943;DHT22;38809;53.300;6.614;2023-08-07T10:46:20;17.20;99.90
52943;DHT22;38809;53.300;6.614;2023-08-07T10:48:53;17.50;99.90
52943;DHT22;38809;53.300;6.614;2023-08-07T10:51:19;17.70;99.90
52943;DHT22;38809;53.300;6.614;2023-08-07T10:53:49;17.50;99.90
52943;DHT22;38809;53.300;6.614;2023-08-07T10:56:18;17.70;99.90
52943;DHT22;38809;53.300;6.614;2023-08-07T10:58:50;18.20;99.90
52943;DHT22;38809;53.300;6.614;2023-08-07T11:03:58;18.30;99.90
52943;DHT22;38809;53.300;6.614;2023-08-07T11:08:54;18.30;99.90
52943;DHT22;38809;53.300;6.614;2023-08-07T11:11:20;18.80;99.90
52943;DHT22;38809;53.300;6.614;2023-08-07T11:13:46;18.40;99.90
52943;DHT22;38809;53.300;6.614;2023-08-07T11:16:12;18.10;99.90
52943;DHT22;38809;53.300;6.614;2023-08-07T11:18:39;17.70;99.90
52943;DHT22;38809;53.300;6.614;2023-08-07T11:21:08;17.30;99.90
52943;DHT22;38809;53.300;6.614;2023-08-07T11:23:40;17.60;99.90
52943;DHT22;38809;53.300;6.614;2023-08-07T11:26:07;17.50;99.90
52943;DHT22;38809;53.300;6.614;2023-08-07T11:28:33;17.60;99.90
52943;DHT22;38809;53.300;6.614;2023-08-07T11:30:59;17.60;99.90
52943;DHT22;38809;53.300;6.614;2023-08-07T11:33:27;17.60;99.90
52943;DHT22;38809;53.300;6.614;2023-08-07T11:35:53;17.50;99.90
52943;DHT22;38809;53.300;6.614;2023-08-07T11:38:38;17.70;99.90
52943;DHT22;38809;53.300;6.614;2023-08-07T11:41:06;17.60;99.90
52943;DHT22;38809;53.300;6.614;2023-08-07T11:43:35;17.70;99.90
52943;DHT22;38809;53.300;6.614;2023-08-07T11:46:03;17.70;99.90
52943;DHT22;38809;53.300;6.614;2023-08-07T11:48:30;17.80;99.90
52943;DHT22;38809;53.300;6.614;2023-08-07T11:50:58;17.80;99.90
52943;DHT22;38809;53.300;6.614;2023-08-07T11:53:29;17.70;99.90
52943;DHT22;38809;53.300;6.614;2023-08-07T11:55:58;18.10;99.90
52943;DHT22;38809;53.300;6.614;2023-08-07T11:58:26;17.90;99.90
52943;DHT22;38809;53.300;6.614;2023-08-07T12:00:53;17.90;99.90
52943;DHT22;38809;53.300;6.614;2023-08-07T12:03:38;18.00;99.90
52943;DHT22;38809;53.300;6.614;2023-08-07T12:06:06;17.90;99.90
52943;DHT22;38809;53.300;6.614;2023-08-07T12:11:01;17.80;99.90
52943;DHT22;38809;53.300;6.614;2023-08-07T12:13:28;17.70;99.90
52943;DHT22;38809;53.300;6.614;2023-08-07T12:15:56;17.60;99.90
52943;DHT22;38809;53.300;6.614;2023-08-07T12:18:23;17.50;99.90
52943;DHT22;38809;53.300;6.614;2023-08-07T12:20:50;18.10;99.90
52943;DHT22;38809;53.300;6.614;2023-08-07T12:23:17;18.30;99.90
52943;DHT22;38809;53.300;6.614;2023-08-07T12:25:43;18.30;99.90
52943;DHT22;38809;53.300;6.614;2023-08-07T12:28:09;18.60;99.90
52943;DHT22;38809;53.300;6.614;2023-08-07T12:30:35;18.40;99.90
52943;DHT22;38809;53.300;6.614;2023-08-07T12:33:01;18.40;99.90
52943;DHT22;38809;53.300;6.614;2023-08-07T12:35:30;18.40;99.90
52943;DHT22;38809;53.300;6.614;2023-08-07T12:37:56;18.50;99.90
52943;DHT22;38809;53.300;6.614;2023-08-07T12:40:22;18.40;99.90
52943;DHT22;38809;53.300;6.614;2023-08-07T12:42:49;18.30;99.90
52943;DHT22;38809;53.300;6.614;2023-08-07T12:45:15;18.20;99.90
52943;DHT22;38809;53.300;6.614;2023-08-07T12:47:42;17.90;99.90
52943;DHT22;38809;53.300;6.614;2023-08-07T12:50:08;18.10;99.90
52943;DHT22;38809;53.300;6.614;2023-08-07T12:52:34;18.20;99.90
52943;DHT22;38809;53.300;6.614;2023-08-07T12:55:00;18.20;99.90
52943;DHT22;38809;53.300;6.614;2023-08-07T12:57:26;17.30;99.90
52943;DHT22;38809;53.300;6.614;2023-08-07T12:59:52;18.10;99.90
52943;DHT22;38809;53.300;6.614;2023-08-07T13:02:18;18.00;99.90
52943;DHT22;38809;53.300;6.614;2023-08-07T13:04:44;18.00;99.90
52943;DHT22;38809;53.300;6.614;2023-08-07T13:07:09;18.10;99.90
52943;DHT22;38809;53.300;6.614;2023-08-07T13:09:35;18.00;99.90
52943;DHT22;38809;53.300;6.614;2023-08-07T13:12:01;17.90;99.90
52943;DHT22;38809;53.300;6.614;2023-08-07T13:14:26;17.80;99.90
52943;DHT22;38809;53.300;6.614;2023-08-07T13:16:52;17.80;99.90
52943;DHT22;38809;53.300;6.614;2023-08-07T13:19:18;17.80;99.90
52943;DHT22;38809;53.300;6.614;2023-08-07T13:21:43;17.80;99.90
52943;DHT22;38809;53.300;6.614;2023-08-07T13:24:09;17.80;99.90
52943;DHT22;38809;53.300;6.614;2023-08-07T13:26:35;17.90;99.90
52943;DHT22;38809;53.300;6.614;2023-08-07T13:29:02;17.80;99.90
52943;DHT22;38809;53.300;6.614;2023-08-07T13:31:27;17.70;99.90
52943;DHT22;38809;53.300;6.614;2023-08-07T13:33:53;17.80;99.90
52943;DHT22;38809;53.300;6.614;2023-08-07T13:36:19;17.80;99.90
52943;DHT22;38809;53.300;6.614;2023-08-07T13:38:44;18.10;99.90
52943;DHT22;38809;53.300;6.614;2023-08-07T13:41:10;18.20;99.90
52943;DHT22;38809;53.300;6.614;2023-08-07T13:43:37;18.20;99.90
52943;DHT22;38809;53.300;6.614;2023-08-07T13:46:03;18.20;99.90
52943;DHT22;38809;53.300;6.614;2023-08-07T13:48:28;18.10;99.90
52943;DHT22;38809;53.300;6.614;2023-08-07T13:50:54;18.10;99.90
52943;DHT22;38809;53.300;6.614;2023-08-07T13:53:20;18.10;99.90
52943;DHT22;38809;53.300;6.614;2023-08-07T13:55:46;17.90;99.90
52943;DHT22;38809;53.300;6.614;2023-08-07T13:58:12;17.80;99.90
52943;DHT22;38809;53.300;6.614;2023-08-07T14:00:41;17.50;99.90
52943;DHT22;38809;53.300;6.614;2023-08-07T14:03:09;17.60;99.90
52943;DHT22;38809;53.300;6.614;2023-08-07T14:05:35;17.40;99.90
52943;DHT22;38809;53.300;6.614;2023-08-07T14:08:00;17.60;99.90
52943;DHT22;38809;53.300;6.614;2023-08-07T14:10:27;17.50;99.90
52943;DHT22;38809;53.300;6.614;2023-08-07T14:12:53;17.40;99.90
52943;DHT22;38809;53.300;6.614;2023-08-07T14:15:19;17.40;99.90
52943;DHT22;38809;53.300;6.614;2023-08-07T14:17:44;17.40;99.90
52943;DHT22;38809;53.300;6.614;2023-08-07T14:20:10;17.50;99.90
52943;DHT22;38809;53.300;6.614;2023-08-07T14:22:36;17.40;99.90
52943;DHT22;38809;53.300;6.614;2023-08-07T14:25:04;17.60;99.90
52943;DHT22;38809;53.300;6.614;2023-08-07T14:27:30;17.90;99.90
52943;DHT22;38809;53.300;6.614;2023-08-07T14:29:56;18.20;99.90
52943;DHT22;38809;53.300;6.614;2023-08-07T14:32:22;18.30;99.90
52943;DHT22;38809;53.300;6.614;2023-08-07T14:34:48;18.10;99.90
52943;DHT22;38809;53.300;6.614;2023-08-07T14:37:14;18.10;99.90
52943;DHT22;38809;53.300;6.614;2023-08-07T14:39:40;18.10;99.90
52943;DHT22;38809;53.300;6.614;2023-08-07T14:42:06;18.00;99.90
52943;DHT22;38809;53.300;6.614;2023-08-07T14:44:33;18.00;99.90
52943;DHT22;38809;53.300;6.614;2023-08-07T14:46:58;17.80;99.90
52943;DHT22;38809;53.300;6.614;2023-08-07T14:49:24;17.70;99.90
52943;DHT22;38809;53.300;6.614;2023-08-07T14:51:50;17.90;99.90
52943;DHT22;38809;53.300;6.614;2023-08-07T14:54:16;18.00;99.90
52943;DHT22;38809;53.300;6.614;2023-08-07T14:56:41;17.90;99.90
52943;DHT22;38809;53.300;6.614;2023-08-07T14:59:07;17.90;99.90
52943;DHT22;38809;53.300;6.614;2023-08-07T15:01:33;17.70;99.90
52943;DHT22;38809;53.300;6.614;2023-08-07T15:03:58;17.80;99.90
52943;DHT22;38809;53.300;6.614;2023-08-07T15:06:24;17.80;99.90
52943;DHT22;38809;53.300;6.614;2023-08-07T15:08:50;17.90;99.90
52943;DHT22;38809;53.300;6.614;2023-08-07T15:11:16;17.90;99.90
52943;DHT22;38809;53.300;6.614;2023-08-07T15:13:42;17.70;99.90
52943;DHT22;38809;53.300;6.614;2023-08-07T15:16:08;17.70;99.90
52943;DHT22;38809;53.300;6.614;2023-08-07T15:18:33;17.90;99.90
52943;DHT22;38809;53.300;6.614;2023-08-07T15:20:59;18.00;99.90
52943;DHT22;38809;53.300;6.614;2023-08-07T15:23:26;18.10;99.90
52943;DHT22;38809;53.300;6.614;2023-08-07T15:25:52;18.20;99.90
52943;DHT22;38809;53.300;6.614;2023-08-07T15:28:18;18.20;99.90
52943;DHT22;38809;53.300;6.614;2023-08-07T15:30:48;18.20;99.90
52943;DHT22;38809;53.300;6.614;2023-08-07T15:33:15;18.30;99.90
52943;DHT22;38809;53.300;6.614;2023-08-07T15:35:42;18.20;99.90